createdAt,value
2023-03-30T14:14:50.226Z,99851.13
2023-03-30T14:18:34.976Z,99857.81
2023-03-30T14:21:06.083Z,99865.84
2023-03-30T14:23:37.500Z,99867.16
2023-03-30T14:26:13.164Z,99871.72
2023-03-30T14:28:42.650Z,99892.63
2023-03-30T14:31:14.838Z,99902.25
2023-03-30T14:33:44.186Z,99904.41
2023-03-30T14:36:16.438Z,99903.59
2023-03-30T14:38:47.788Z,99897.94
2023-03-30T14:41:19.266Z,99906.47
2023-03-30T14:43:52.976Z,99909.69
2023-03-30T14:46:21.130Z,99925.91
2023-03-30T14:48:50.957Z,99919.97
2023-03-30T14:51:25.451Z,99923.44
2023-03-30T14:53:54.275Z,99920.47
2023-03-30T14:56:23.385Z,99916.97
2023-03-30T14:58:53.663Z,99911.06
2023-03-30T15:01:30.810Z,99904.31
2023-03-30T15:04:04.655Z,99895.47
2023-03-30T15:06:33.708Z,99895.44
2023-03-30T15:09:03.279Z,99894.06
2023-03-30T15:11:33.970Z,99888.72
2023-03-30T15:14:05.827Z,99891.38
2023-03-30T15:16:35.837Z,99882.03
2023-03-30T15:19:07.799Z,99882.56
2023-03-30T15:21:38.582Z,99880.44
2023-03-30T15:24:08.640Z,99868.16
2023-03-30T15:26:39.984Z,99872.41
2023-03-30T15:29:07.783Z,99872.41
2023-03-30T15:31:35.525Z,99866.75
2023-03-30T15:34:05.813Z,99869.16
2023-03-30T15:36:40.291Z,99855.53
2023-03-30T15:39:22.213Z,99863.75
2023-03-30T15:42:00.774Z,99868.56
2023-03-30T15:44:30.319Z,99857.13
2023-03-30T15:46:58.588Z,99856.56
2023-03-30T15:49:33.297Z,99864.88
2023-03-30T15:52:09.204Z,99848.31
2023-03-30T15:54:40.265Z,99854.13
2023-03-30T15:57:16.983Z,99848.53
2023-03-30T15:59:46.824Z,99855.75
2023-03-30T16:02:17.640Z,99845.63
2023-03-30T16:04:45.565Z,99848.56
2023-03-30T16:07:20.741Z,99841.63
2023-03-30T16:09:49.382Z,99839.75
2023-03-30T16:12:19.759Z,99847.78
2023-03-30T16:14:49.691Z,99841.13
2023-03-30T16:17:17.887Z,99844.59
2023-03-30T16:19:46.269Z,99835.78
2023-03-30T16:22:15.775Z,99832.34
2023-03-30T16:24:44.851Z,99841.97
2023-03-30T16:27:14.137Z,99832.84
2023-03-30T16:29:42.372Z,99828.31
2023-03-30T16:32:10.090Z,99839.81
2023-03-30T16:34:37.813Z,99838.19
2023-03-30T16:37:05.993Z,99834.75
2023-03-30T16:39:33.796Z,99839.59
2023-03-30T16:42:02.842Z,99836.91
2023-03-30T16:44:31.108Z,99840.38
2023-03-30T16:46:58.971Z,99828.91
2023-03-30T16:49:27.129Z,99841.19
2023-03-30T16:51:58.094Z,99837.97
2023-03-30T16:56:57.282Z,99841.97
2023-03-30T16:59:29.030Z,99830.47
2023-03-30T17:01:57.784Z,99833.94
2023-03-30T17:04:25.549Z,99835.56
2023-03-30T17:06:54.504Z,99835.03
2023-03-30T17:09:24.198Z,99841.44
2023-03-30T17:11:52.184Z,99842.97
2023-03-30T17:14:20.823Z,99840.31
2023-03-30T17:16:50.777Z,99837.34
2023-03-30T17:19:18.524Z,99843.72
2023-03-30T17:21:46.385Z,99833.56
2023-03-30T17:24:16.821Z,99835.97
2023-03-30T17:26:44.862Z,99833.81
2023-03-30T17:29:12.589Z,99836.72
2023-03-30T17:31:46.047Z,99841.03
2023-03-30T17:34:16.518Z,99850.91
2023-03-30T17:36:44.193Z,99843.34
2023-03-30T17:39:14.379Z,99838.28
2023-03-30T17:41:42.337Z,99834.25
2023-03-30T17:44:09.996Z,99838.81
2023-03-30T17:46:38.306Z,99836.41
2023-03-30T17:49:17.863Z,99834.78
2023-03-30T17:51:45.763Z,99837.69
2023-03-30T17:54:13.457Z,99845.97
2023-03-30T17:56:41.177Z,99847.56
2023-03-30T17:59:11.728Z,99848.31
2023-03-30T18:01:39.700Z,99850.91
2023-03-30T18:04:07.780Z,99841.31
2023-03-30T18:06:37.210Z,99836.75
2023-03-30T18:09:05.053Z,99825.56
2023-03-30T18:11:32.717Z,99830.84
2023-03-30T18:14:01.098Z,99831.66
2023-03-30T18:16:28.915Z,99837.19
2023-03-30T18:18:58.057Z,99840.94
2023-03-30T18:21:27.651Z,99841.41
2023-03-30T18:23:56.923Z,99840.84
2023-03-30T18:26:24.669Z,99845.06
2023-03-30T18:28:52.786Z,99844.78
2023-03-30T18:31:20.964Z,99832.53
2023-03-30T18:33:50.410Z,99832.19
2023-03-30T18:36:21.450Z,99836.94
2023-03-30T18:38:50.202Z,99827.28
2023-03-30T18:41:19.297Z,99836.34
2023-03-30T18:43:47.234Z,99827.81
2023-03-30T18:46:14.980Z,99835.28
2023-03-30T18:48:42.775Z,99827.81
2023-03-30T18:51:12.444Z,99830.22
2023-03-30T18:53:39.933Z,99831.56
2023-03-30T18:56:07.800Z,99832.13
2023-03-30T18:58:42.063Z,99830.53
2023-03-30T19:01:11.881Z,99829.97
2023-03-30T19:03:40.646Z,99825.19
2023-03-30T19:06:13.966Z,99830.00
2023-03-30T19:08:43.331Z,99837.47
2023-03-30T19:11:15.158Z,99829.97
2023-03-30T19:13:44.453Z,99831.81
2023-03-30T19:16:12.130Z,99842.97
2023-03-30T19:18:40.130Z,99838.72
2023-03-30T19:21:08.009Z,99847.50
2023-03-30T19:23:36.100Z,99849.69
2023-03-30T19:26:04.072Z,99852.84
2023-03-30T19:28:33.229Z,99853.38
2023-03-30T19:31:06.799Z,99840.09
2023-03-30T19:33:34.899Z,99834.69
2023-03-30T19:36:03.013Z,99822.97
2023-03-30T19:38:30.946Z,99829.84
2023-03-30T19:41:00.853Z,99827.16
2023-03-30T19:43:28.849Z,99829.81
2023-03-30T19:45:56.822Z,99823.34
2023-03-30T19:48:27.223Z,99834.00
2023-03-30T19:50:54.901Z,99827.00
2023-03-30T19:53:22.766Z,99822.19
2023-03-30T19:55:50.507Z,99828.81
2023-03-30T19:58:18.176Z,99827.41
2023-03-30T20:00:49.610Z,99814.06
2023-03-30T20:03:17.543Z,99822.31
2023-03-30T20:05:50.595Z,99816.19
2023-03-30T20:08:24.579Z,99802.31
2023-03-30T20:10:53.279Z,99806.84
2023-03-30T20:13:23.851Z,99800.69
2023-03-30T20:15:56.276Z,99794.81
2023-03-30T20:18:24.095Z,99792.66
2023-03-30T20:20:53.621Z,99787.56
2023-03-30T20:23:21.643Z,99780.09
2023-03-30T20:25:50.509Z,99778.47
2023-03-30T20:28:18.443Z,99774.78
2023-03-30T20:30:46.320Z,99769.44
2023-03-30T20:33:14.237Z,99746.50
2023-03-30T20:35:43.033Z,99753.47
2023-03-30T20:38:12.358Z,99761.19
2023-03-30T20:40:40.000Z,99763.28
2023-03-30T20:43:10.086Z,99750.47
2023-03-30T20:45:46.277Z,99757.91
2023-03-30T20:48:26.936Z,99753.91
2023-03-30T20:50:56.117Z,99756.81
2023-03-30T20:53:25.828Z,99756.25
2023-03-30T20:55:53.310Z,99745.31
2023-03-30T20:58:22.633Z,99743.72
2023-03-30T21:00:51.891Z,99738.66
2023-03-30T21:03:20.277Z,99726.41
2023-03-30T21:05:48.571Z,99722.38
2023-03-30T21:08:16.610Z,99726.56
2023-03-30T21:10:45.772Z,99729.00
2023-03-30T21:13:15.203Z,99724.16
2023-03-30T21:15:42.938Z,99727.91
2023-03-30T21:18:10.816Z,99725.22
2023-03-30T21:20:38.815Z,99710.31
2023-03-30T21:23:06.873Z,99704.97
2023-03-30T21:25:34.574Z,99707.66
2023-03-30T21:28:04.217Z,99711.59
2023-03-30T21:30:33.229Z,99700.19
2023-03-30T21:33:01.272Z,99695.66
2023-03-30T21:35:30.125Z,99690.59
2023-03-30T21:37:57.806Z,99699.66
2023-03-30T21:40:25.546Z,99690.59
2023-03-30T21:42:53.779Z,99693.53
2023-03-30T21:45:22.928Z,99692.41
2023-03-30T21:47:50.795Z,99691.09
2023-03-30T21:50:19.241Z,99682.56
2023-03-30T21:52:47.285Z,99678.84
2023-03-30T21:55:15.236Z,99668.72
2023-03-30T21:57:43.452Z,99674.84
2023-03-30T22:00:12.941Z,99654.31
2023-03-30T22:02:42.125Z,99648.19
2023-03-30T22:05:10.350Z,99652.72
2023-03-30T22:07:38.061Z,99633.25
2023-03-30T22:10:06.751Z,99630.59
2023-03-30T22:12:35.035Z,99624.22
2023-03-30T22:15:02.802Z,99612.00
2023-03-30T22:17:35.642Z,99618.16
2023-03-30T22:20:06.971Z,99602.22
2023-03-30T22:22:34.668Z,99601.16
2023-03-30T22:25:02.821Z,99592.09
2023-03-30T22:27:30.608Z,99597.97
2023-03-30T22:29:59.284Z,99596.94
2023-03-30T22:32:27.556Z,99586.28
2023-03-30T22:34:55.323Z,99581.97
2023-03-30T22:37:26.002Z,99582.53
2023-03-30T22:39:54.247Z,99575.84
2023-03-30T22:42:22.531Z,99570.78
2023-03-30T22:44:50.629Z,99571.59
2023-03-30T22:47:18.865Z,99566.25
2023-03-30T22:49:47.227Z,99561.44
2023-03-30T22:52:14.920Z,99555.56
2023-03-30T22:54:44.649Z,99547.84
2023-03-30T22:57:12.462Z,99542.47
2023-03-30T22:59:40.199Z,99550.47
2023-03-30T23:02:08.467Z,99541.38
2023-03-30T23:04:36.224Z,99537.09
2023-03-30T23:07:04.536Z,99535.50
2023-03-30T23:09:34.090Z,99525.38
2023-03-30T23:12:04.513Z,99520.84
2023-03-30T23:14:32.295Z,99520.56
2023-03-30T23:17:00.614Z,99505.66
2023-03-30T23:19:29.288Z,99507.50
2023-03-30T23:21:57.541Z,99503.22
2023-03-30T23:24:25.971Z,99495.75
2023-03-30T23:26:53.942Z,99491.22
2023-03-30T23:29:22.981Z,99490.69
2023-03-30T23:31:52.518Z,99488.81
2023-03-30T23:34:20.060Z,99480.84
2023-03-30T23:36:49.587Z,99476.84
2023-03-30T23:39:18.243Z,99463.53
2023-03-30T23:41:46.240Z,99453.94
2023-03-30T23:44:13.906Z,99453.72
2023-03-30T23:46:43.510Z,99451.84
2023-03-30T23:49:11.255Z,99450.28
2023-03-30T23:51:38.967Z,99440.66
2023-03-30T23:54:07.628Z,99442.53
2023-03-30T23:56:35.997Z,99441.47
2023-03-30T23:59:04.450Z,99432.94
